Time;durP1;ratioP1;P1;durP2;ratioP2;P2;SDS_P1;SDS_P2;PMS_P1;PMS_P2;Temp;Humidity;BMP_temperature;BMP_pressure;BME280_temperature;BME280_humidity;BME280_pressure;Samples;Min_cycle;Max_cycle;Signal;HPM_P1;HPM_P2
2022/07/25 00:01:09;;;;;;;10.60;8.57;;;25.00;89.20;;;;;;6989159;28;20443;-79
2022/07/25 00:04:31;;;;;;;9.90;8.90;;;25.00;89.20;;;;;;6999821;28;20433;-78
2022/07/25 00:07:53;;;;;;;10.20;8.82;;;24.80;89.30;;;;;;7000951;28;20451;-77
2022/07/25 00:11:15;;;;;;;10.98;8.85;;;24.70;89.30;;;;;;7001598;28;20428;-78
2022/07/25 00:14:38;;;;;;;10.50;8.85;;;24.60;90.10;;;;;;7029473;28;20430;-78
2022/07/25 00:18:01;;;;;;;10.63;9.20;;;24.50;90.30;;;;;;7027277;28;20427;-77
2022/07/25 00:21:23;;;;;;;11.43;9.43;;;24.50;90.70;;;;;;7022879;28;20442;-79
2022/07/25 00:24:45;;;;;;;10.48;9.23;;;24.40;90.60;;;;;;7026903;28;20442;-79
2022/07/25 00:28:07;;;;;;;10.35;9.00;;;24.20;91.20;;;;;;7026114;28;20428;-76
2022/07/25 00:31:30;;;;;;;10.13;9.07;;;24.10;91.50;;;;;;7010130;28;20475;-78
2022/07/25 00:34:52;;;;;;;9.98;8.80;;;24.10;91.60;;;;;;7014638;28;20812;-78
2022/07/25 00:38:14;;;;;;;11.38;8.93;;;24.00;91.90;;;;;;7008306;28;20428;-78
2022/07/25 00:41:36;;;;;;;11.30;9.23;;;24.10;91.70;;;;;;7025284;28;20407;-79
2022/07/25 00:44:59;;;;;;;10.98;9.50;;;23.90;91.80;;;;;;6996346;28;20434;-77
2022/07/25 00:48:22;;;;;;;10.18;9.07;;;23.80;92.70;;;;;;6970504;28;20783;-77
2022/07/25 00:51:45;;;;;;;11.52;10.27;;;23.80;92.50;;;;;;6968320;28;20426;-78
2022/07/25 00:55:08;;;;;;;13.07;11.35;;;23.40;93.00;;;;;;6978170;28;20433;-79
2022/07/25 00:58:30;;;;;;;11.82;10.60;;;23.30;93.60;;;;;;6971148;28;20911;-78
2022/07/25 01:01:53;;;;;;;13.07;11.68;;;23.30;93.60;;;;;;6969572;28;20429;-79
2022/07/25 01:05:16;;;;;;;13.07;11.68;;;23.20;94.40;;;;;;6968344;28;20475;-78
2022/07/25 01:08:39;;;;;;;12.93;11.20;;;23.20;94.80;;;;;;6968185;28;20823;-79
2022/07/25 01:12:01;;;;;;;12.55;11.20;;;23.20;95.20;;;;;;6973476;28;20783;-77
2022/07/25 01:15:24;;;;;;;13.90;11.30;;;23.30;95.30;;;;;;6989022;28;20477;-79
2022/07/25 01:18:46;;;;;;;12.63;11.32;;;23.30;95.40;;;;;;6974461;28;20429;-76
2022/07/25 01:22:10;;;;;;;13.00;11.17;;;23.40;95.50;;;;;;6978635;28;20451;-79
2022/07/25 01:25:32;;;;;;;12.43;11.13;;;23.40;95.50;;;;;;6998916;28;20424;-80
2022/07/25 01:28:55;;;;;;;14.27;10.98;;;23.40;95.60;;;;;;7000956;28;20423;-79
2022/07/25 01:32:17;;;;;;;13.07;11.67;;;23.30;95.70;;;;;;6973476;28;20933;-79
2022/07/25 01:35:40;;;;;;;12.00;10.80;;;23.00;95.60;;;;;;6971408;28;20903;-80
2022/07/25 01:39:03;;;;;;;12.68;10.48;;;23.00;96.50;;;;;;6995950;28;20428;-79
2022/07/25 01:42:26;;;;;;;11.38;10.15;;;23.00;96.20;;;;;;7000081;28;20431;-80
2022/07/25 01:45:48;;;;;;;11.68;10.48;;;23.10;96.40;;;;;;6996345;28;21026;-80
2022/07/25 01:49:10;;;;;;;10.70;9.60;;;23.00;96.40;;;;;;6997158;28;20474;-79
2022/07/25 01:52:32;;;;;;;11.43;10.23;;;23.10;96.40;;;;;;6995144;28;21090;-79
2022/07/25 01:55:56;;;;;;;11.70;10.45;;;23.00;96.20;;;;;;6975675;28;20456;-80
2022/07/25 01:59:18;;;;;;;11.73;10.53;;;23.00;96.30;;;;;;6999102;28;20754;-77
2022/07/25 02:02:41;;;;;;;12.35;10.80;;;22.70;97.00;;;;;;6995234;28;20928;-80
2022/07/25 02:06:07;;;;;;;12.95;10.77;;;22.60;96.60;;;;;;6994472;28;20433;-80
2022/07/25 02:09:29;;;;;;;12.47;10.60;;;22.40;97.20;;;;;;6998485;28;20598;-79
2022/07/25 02:12:52;;;;;;;11.75;10.25;;;22.30;97.70;;;;;;6999168;28;20432;-79
2022/07/25 02:16:14;;;;;;;13.55;10.98;;;22.40;97.60;;;;;;6995954;28;20476;-76
2022/07/25 02:19:37;;;;;;;13.45;10.90;;;22.40;98.10;;;;;;6988493;28;20472;-78
2022/07/25 02:22:59;;;;;;;11.55;10.35;;;22.40;97.70;;;;;;6986753;28;20449;-80
2022/07/25 02:26:21;;;;;;;11.68;10.45;;;22.40;97.70;;;;;;6996957;28;20439;-79
2022/07/25 02:29:44;;;;;;;12.05;10.85;;;22.50;97.50;;;;;;6987937;28;20433;-78
2022/07/25 02:33:06;;;;;;;11.47;10.27;;;22.50;97.80;;;;;;6983389;28;20424;-78
2022/07/25 02:36:28;;;;;;;11.50;10.30;;;22.60;97.50;;;;;;6989058;28;20777;-78
2022/07/25 02:39:51;;;;;;;11.43;10.20;;;22.50;97.40;;;;;;7009135;28;20904;-78
2022/07/25 02:43:13;;;;;;;11.32;10.18;;;22.50;97.50;;;;;;6982425;28;20433;-78
2022/07/25 02:46:36;;;;;;;11.65;10.45;;;22.50;97.50;;;;;;6974870;28;20913;-79
2022/07/25 02:49:58;;;;;;;12.18;10.50;;;22.40;97.50;;;;;;6998834;28;20880;-77
2022/07/25 02:53:20;;;;;;;11.00;9.90;;;22.30;97.80;;;;;;6993589;28;20427;-78
2022/07/25 02:56:42;;;;;;;11.55;10.35;;;22.40;98.10;;;;;;6992903;28;20430;-77
2022/07/25 03:00:06;;;;;;;12.95;10.70;;;22.30;98.00;;;;;;6974478;28;20433;-79
2022/07/25 03:03:30;;;;;;;14.20;11.00;;;22.40;98.30;;;;;;6972999;28;20465;-76
2022/07/25 03:06:52;;;;;;;12.20;10.85;;;22.00;98.80;;;;;;6977231;28;20963;-79
2022/07/25 03:10:14;;;;;;;12.32;10.23;;;22.10;98.90;;;;;;6997469;28;20459;-79
2022/07/25 03:13:36;;;;;;;12.13;10.60;;;22.20;98.70;;;;;;6997334;28;20431;-78
2022/07/25 03:16:58;;;;;;;12.77;10.80;;;22.20;98.00;;;;;;6994225;28;20464;-79
2022/07/25 03:20:22;;;;;;;11.93;10.73;;;21.90;98.70;;;;;;6993551;28;20468;-79
2022/07/25 03:23:44;;;;;;;12.70;10.87;;;21.40;99.70;;;;;;6968949;28;20552;-78
2022/07/25 03:27:06;;;;;;;11.35;10.20;;;21.40;99.60;;;;;;6976990;28;20435;-79
2022/07/25 03:30:28;;;;;;;11.93;10.57;;;21.60;99.60;;;;;;6978349;28;20545;-78
2022/07/25 03:33:50;;;;;;;14.48;10.93;;;21.70;99.10;;;;;;6986217;28;20435;-78
2022/07/25 03:37:13;;;;;;;12.23;10.68;;;21.60;99.20;;;;;;6993605;28;20428;-78
2022/07/25 03:40:36;;;;;;;12.07;10.77;;;21.60;99.50;;;;;;6994148;28;20911;-76
2022/07/25 03:43:58;;;;;;;11.63;10.40;;;21.60;99.30;;;;;;7000558;28;20754;-77
2022/07/25 03:47:20;;;;;;;12.10;10.60;;;21.70;99.40;;;;;;6983857;28;20472;-78
2022/07/25 03:50:42;;;;;;;11.73;10.30;;;21.70;99.20;;;;;;6979823;28;20470;-80
2022/07/25 03:54:07;;;;;;;11.55;10.27;;;21.70;99.20;;;;;;6996140;28;20431;-79
2022/07/25 03:57:29;;;;;;;11.57;10.38;;;21.80;99.10;;;;;;6995903;28;20423;-80
2022/07/25 04:00:51;;;;;;;13.18;11.68;;;21.90;99.50;;;;;;6995998;28;20451;-79
2022/07/25 04:04:14;;;;;;;12.20;10.80;;;21.80;99.50;;;;;;6987779;28;20427;-79
2022/07/25 04:07:36;;;;;;;13.05;11.40;;;21.80;98.90;;;;;;6995615;28;20947;-80
2022/07/25 04:11:00;;;;;;;12.38;10.85;;;21.40;99.30;;;;;;6995453;28;20428;-80
2022/07/25 04:14:22;;;;;;;13.30;10.95;;;21.20;99.70;;;;;;6980289;28;20440;-80
2022/07/25 04:17:44;;;;;;;11.88;10.60;;;21.30;99.90;;;;;;6974193;28;20433;-78
2022/07/25 04:21:06;;;;;;;12.55;10.40;;;21.40;99.90;;;;;;6998970;28;20631;-83
2022/07/25 04:24:28;;;;;;;11.38;10.18;;;21.60;99.90;;;;;;6977617;28;20864;-80
2022/07/25 04:27:52;;;;;;;11.47;10.23;;;21.60;99.50;;;;;;6968661;28;20448;-79
2022/07/25 04:31:14;;;;;;;12.43;10.63;;;21.60;99.50;;;;;;6969878;28;20893;-78
2022/07/25 04:34:36;;;;;;;12.05;10.73;;;21.40;99.70;;;;;;6968168;28;20898;-78
2022/07/25 04:37:58;;;;;;;13.68;12.27;;;21.10;99.90;;;;;;6967999;28;20475;-79
2022/07/25 04:41:21;;;;;;;13.02;11.40;;;21.30;99.90;;;;;;6967839;28;20421;-80
2022/07/25 04:44:44;;;;;;;14.25;11.60;;;21.40;99.90;;;;;;6970594;28;20425;-79
2022/07/25 04:48:07;;;;;;;14.17;12.60;;;21.50;99.90;;;;;;6973166;28;20445;-80
2022/07/25 04:51:29;;;;;;;12.37;11.07;;;21.60;99.90;;;;;;6988830;28;20777;-79
2022/07/25 04:54:51;;;;;;;13.55;12.10;;;21.70;99.90;;;;;;7001229;28;20498;-78
2022/07/25 04:58:13;;;;;;;14.33;11.97;;;21.80;99.90;;;;;;7001131;28;20873;-79
2022/07/25 05:01:36;;;;;;;13.95;11.65;;;21.90;99.90;;;;;;6986525;28;20480;-80
2022/07/25 05:04:58;;;;;;;12.30;11.00;;;21.90;99.90;;;;;;6973993;28;20433;-78
2022/07/25 05:08:22;;;;;;;13.63;11.30;;;22.00;99.90;;;;;;6972645;28;20476;-78
2022/07/25 05:11:44;;;;;;;12.88;11.20;;;22.10;99.90;;;;;;6972536;28;20433;-77
2022/07/25 05:15:07;;;;;;;12.35;10.93;;;22.20;99.70;;;;;;6972721;28;20473;-78
2022/07/25 05:18:31;;;;;;;13.38;10.90;;;22.20;99.50;;;;;;6972691;28;20422;-79
2022/07/25 05:21:53;;;;;;;13.82;11.18;;;22.30;99.50;;;;;;6991030;28;20529;-78
2022/07/25 05:25:15;;;;;;;12.20;10.65;;;22.40;99.50;;;;;;6999344;28;20430;-78
2022/07/25 05:28:38;;;;;;;11.65;10.25;;;22.40;99.50;;;;;;6999282;28;20474;-75
2022/07/25 05:32:00;;;;;;;11.38;10.13;;;22.60;99.20;;;;;;6998475;28;20792;-77
2022/07/25 05:35:23;;;;;;;12.15;9.98;;;22.80;98.70;;;;;;6999299;28;20565;-75
2022/07/25 05:38:45;;;;;;;12.48;10.43;;;23.00;98.60;;;;;;6999368;28;20431;-76
2022/07/25 05:42:08;;;;;;;12.32;11.02;;;23.20;98.10;;;;;;6999024;28;20474;-78
2022/07/25 05:45:30;;;;;;;12.90;11.43;;;23.20;98.20;;;;;;6988750;28;20906;-76
2022/07/25 05:48:52;;;;;;;13.02;11.02;;;23.10;97.90;;;;;;6971682;28;20512;-77
2022/07/25 05:52:15;;;;;;;15.07;11.50;;;23.10;98.10;;;;;;6971132;28;20457;-76
2022/07/25 05:55:38;;;;;;;12.40;11.10;;;23.10;98.40;;;;;;6970282;28;20468;-74
2022/07/25 05:59:00;;;;;;;12.23;10.48;;;23.10;98.40;;;;;;6971534;28;20425;-78
2022/07/25 06:02:22;;;;;;;13.02;10.65;;;23.20;98.00;;;;;;6973264;28;20426;-77
2022/07/25 06:05:45;;;;;;;13.60;11.80;;;23.40;98.20;;;;;;6973293;28;20465;-79
2022/07/25 06:09:08;;;;;;;13.60;11.60;;;23.10;98.00;;;;;;6970696;28;20491;-77
2022/07/25 06:12:32;;;;;;;14.82;12.60;;;23.00;98.90;;;;;;6970678;28;20473;-77
2022/07/25 06:15:54;;;;;;;13.93;12.30;;;23.00;98.90;;;;;;6970929;28;20440;-77
2022/07/25 06:19:16;;;;;;;14.27;12.50;;;23.00;99.20;;;;;;6970888;28;20432;-76
2022/07/25 06:22:39;;;;;;;14.37;11.60;;;22.90;99.50;;;;;;6969657;28;20607;-80
2022/07/25 06:26:02;;;;;;;14.48;11.75;;;23.00;98.90;;;;;;6970804;28;20467;-79
2022/07/25 06:29:24;;;;;;;13.23;11.88;;;23.20;98.20;;;;;;6970426;28;20531;-78
2022/07/25 06:32:46;;;;;;;13.65;11.95;;;23.20;98.20;;;;;;6970428;28;20872;-77
2022/07/25 06:36:09;;;;;;;12.20;10.90;;;23.40;97.90;;;;;;6974747;28;20897;-78
2022/07/25 06:39:31;;;;;;;13.07;11.00;;;23.50;97.50;;;;;;6969412;28;20435;-78
2022/07/25 06:42:55;;;;;;;14.20;12.80;;;23.60;96.80;;;;;;6970231;28;20480;-77
2022/07/25 06:46:19;;;;;;;13.45;12.05;;;23.40;96.60;;;;;;6988784;28;20427;-79
2022/07/25 06:49:42;;;;;;;14.45;11.73;;;23.40;97.10;;;;;;6997117;28;20837;-78
2022/07/25 06:53:04;;;;;;;13.35;11.43;;;23.40;97.00;;;;;;6997783;28;20427;-78
2022/07/25 06:56:30;;;;;;;13.00;11.63;;;23.60;97.10;;;;;;6988963;28;20458;-78
2022/07/25 06:59:53;;;;;;;12.70;11.23;;;23.80;97.10;;;;;;6969687;28;20425;-77
2022/07/25 07:03:15;;;;;;;12.55;11.25;;;23.90;97.00;;;;;;6974699;28;20464;-77
2022/07/25 07:06:38;;;;;;;12.20;10.90;;;24.00;97.20;;;;;;6969571;28;20484;-79
2022/07/25 07:10:00;;;;;;;12.35;11.05;;;24.00;97.10;;;;;;6969489;28;20433;-77
2022/07/25 07:13:23;;;;;;;13.75;11.40;;;24.00;97.20;;;;;;6980612;28;20423;-76
2022/07/25 07:16:46;;;;;;;12.05;10.32;;;24.10;97.20;;;;;;6969211;28;20429;-77
2022/07/25 07:20:10;;;;;;;13.00;11.45;;;24.20;97.10;;;;;;6969309;28;20432;-77
2022/07/25 07:23:32;;;;;;;14.40;11.35;;;24.30;97.10;;;;;;6970011;28;20487;-78
2022/07/25 07:26:55;;;;;;;13.40;11.43;;;24.40;97.20;;;;;;6975806;28;20433;-78
2022/07/25 07:30:17;;;;;;;12.52;11.32;;;24.50;97.60;;;;;;6966681;28;20657;-78
2022/07/25 07:33:41;;;;;;;13.88;11.48;;;24.60;97.10;;;;;;6969136;28;20902;-76
2022/07/25 07:37:03;;;;;;;13.17;11.53;;;24.60;97.60;;;;;;6969331;28;20429;-76
2022/07/25 07:40:25;;;;;;;13.25;11.43;;;24.70;97.20;;;;;;6968724;28;20440;-78
2022/07/25 07:43:47;;;;;;;13.95;11.82;;;24.90;97.00;;;;;;6968539;28;20443;-81
2022/07/25 07:47:10;;;;;;;13.02;11.57;;;25.00;97.00;;;;;;6968348;28;20436;-79
2022/07/25 07:50:33;;;;;;;15.05;11.73;;;25.00;97.30;;;;;;6975391;28;20467;-78
2022/07/25 07:57:36;;;;;;;13.88;11.85;;;25.20;97.40;;;;;;6965610;28;20445;-77
2022/07/25 08:00:58;;;;;;;12.35;10.95;;;25.20;96.90;;;;;;6964760;28;20432;-78
2022/07/25 08:04:20;;;;;;;12.98;11.68;;;25.30;97.50;;;;;;6964915;28;20472;-77
2022/07/25 08:07:44;;;;;;;13.18;11.60;;;25.40;97.20;;;;;;6964853;28;20946;-76
2022/07/25 08:11:06;;;;;;;13.38;11.50;;;25.40;97.60;;;;;;6966044;28;21084;-79
2022/07/25 08:14:28;;;;;;;13.60;11.02;;;25.60;97.80;;;;;;6964767;28;20429;-77
2022/07/25 08:17:51;;;;;;;12.77;10.83;;;25.70;96.90;;;;;;6962475;28;20539;-75
2022/07/25 08:21:13;;;;;;;11.65;10.45;;;25.80;96.50;;;;;;6970404;28;20436;-76
2022/07/25 08:24:36;;;;;;;12.93;10.80;;;25.90;95.90;;;;;;6971692;28;20431;-77
2022/07/25 08:27:59;;;;;;;12.32;10.70;;;26.00;95.60;;;;;;6969970;28;20435;-77
2022/07/25 08:31:21;;;;;;;12.75;10.80;;;26.20;95.40;;;;;;6970426;28;20487;-76
2022/07/25 08:34:43;;;;;;;11.82;10.57;;;26.30;95.10;;;;;;6970973;28;20476;-79
2022/07/25 08:38:06;;;;;;;11.95;10.45;;;26.40;94.50;;;;;;6969858;28;20436;-79
2022/07/25 08:41:29;;;;;;;12.20;11.00;;;26.60;94.00;;;;;;6969792;28;20487;-77
2022/07/25 08:45:01;;;;;;;12.43;10.88;;;26.70;93.30;;;;;;6994285;28;20463;-78
2022/07/25 08:48:26;;;;;;;12.83;10.40;;;26.60;93.70;;;;;;6996945;28;20888;-77
2022/07/25 08:51:49;;;;;;;13.37;10.83;;;26.70;93.70;;;;;;6997622;28;20427;-77
2022/07/25 08:55:18;;;;;;;11.55;10.07;;;26.70;93.70;;;;;;6995314;28;20463;-76
2022/07/25 08:58:42;;;;;;;11.63;9.93;;;26.80;93.60;;;;;;6996611;28;20522;-80
2022/07/25 09:02:07;;;;;;;11.40;9.57;;;27.00;92.20;;;;;;6996582;28;20477;-77
2022/07/25 09:05:32;;;;;;;11.20;10.00;;;27.10;90.90;;;;;;6985004;28;20850;-77
2022/07/25 09:08:56;;;;;;;11.52;9.90;;;27.10;90.80;;;;;;6968765;28;20500;-77
2022/07/25 09:12:27;;;;;;;12.52;9.57;;;27.20;91.00;;;;;;6982378;28;20444;-76
2022/07/25 09:15:52;;;;;;;10.63;8.60;;;27.40;90.90;;;;;;6982276;28;20484;-78
2022/07/25 09:19:16;;;;;;;9.68;8.50;;;27.70;87.70;;;;;;6983526;28;20515;-77
2022/07/25 09:22:45;;;;;;;12.17;8.70;;;27.80;85.00;;;;;;6970182;28;20436;-78
2022/07/25 09:26:10;;;;;;;10.10;8.65;;;28.00;83.20;;;;;;6969129;28;20428;-73
2022/07/25 09:29:34;;;;;;;10.98;8.68;;;28.10;82.40;;;;;;6969151;28;20483;-77
2022/07/25 09:33:01;;;;;;;8.93;8.00;;;28.20;82.60;;;;;;6968731;28;20425;-75
2022/07/25 09:36:24;;;;;;;8.90;7.90;;;28.20;80.40;;;;;;6972718;28;20429;-78
2022/07/25 09:39:50;;;;;;;8.90;7.50;;;28.30;79.90;;;;;;6970603;28;20429;-76
2022/07/25 09:43:12;;;;;;;8.95;7.40;;;28.30;77.20;;;;;;6981842;28;20487;-79
2022/07/25 09:46:34;;;;;;;8.18;7.00;;;28.40;77.00;;;;;;6996462;28;20423;-77
2022/07/25 09:49:58;;;;;;;9.10;7.65;;;28.40;74.20;;;;;;6995817;28;20463;-78
2022/07/25 09:53:20;;;;;;;8.98;7.40;;;28.60;73.70;;;;;;6995734;28;20481;-78
2022/07/25 09:56:42;;;;;;;8.57;6.95;;;28.70;73.40;;;;;;6993395;28;20466;-78
2022/07/25 10:00:08;;;;;;;8.38;7.00;;;28.80;73.80;;;;;;6998358;28;20427;-78
2022/07/25 10:03:42;;;;;;;8.70;6.95;;;28.80;70.90;;;;;;7002377;28;20435;-80
2022/07/25 10:07:11;;;;;;;8.95;7.60;;;28.90;70.90;;;;;;7003229;28;20521;-78
2022/07/25 10:10:38;;;;;;;9.18;7.70;;;28.90;70.50;;;;;;6999674;28;20519;-79
2022/07/25 10:14:11;;;;;;;8.90;7.57;;;29.00;71.30;;;;;;6995450;28;20423;-76
2022/07/25 10:17:34;;;;;;;8.30;7.43;;;29.10;71.00;;;;;;6991546;28;20428;-77
2022/07/25 10:21:11;;;;;;;8.82;7.20;;;29.10;70.90;;;;;;6994798;28;20459;-77
2022/07/25 10:24:36;;;;;;;8.10;7.00;;;29.30;69.30;;;;;;6972094;28;20519;-76
2022/07/25 10:28:02;;;;;;;8.60;6.80;;;29.40;69.80;;;;;;6980230;28;20565;-77
2022/07/25 10:31:33;;;;;;;8.05;7.18;;;29.50;69.10;;;;;;6968216;28;20508;-77
2022/07/25 10:34:55;;;;;;;12.60;9.90;;;29.60;67.40;;;;;;6966365;28;20460;-75
2022/07/25 10:38:24;;;;;;;9.80;8.03;;;29.70;67.80;;;;;;6967231;28;20425;-77
2022/07/25 10:41:54;;;;;;;9.15;7.90;;;29.80;67.60;;;;;;6966132;28;20433;-77
2022/07/25 10:45:18;;;;;;;8.00;7.00;;;29.70;66.80;;;;;;6968415;28;20456;-77
2022/07/25 10:48:41;;;;;;;8.52;7.28;;;29.80;68.20;;;;;;6966825;28;20448;-79
2022/07/25 10:52:04;;;;;;;9.00;7.13;;;30.00;66.00;;;;;;6986674;28;20488;-79
2022/07/25 10:55:28;;;;;;;8.10;6.65;;;30.10;65.10;;;;;;6993581;28;20482;-77
2022/07/25 10:58:54;;;;;;;7.80;7.00;;;30.20;64.40;;;;;;6993542;28;20474;-79
2022/07/25 11:02:17;;;;;;;8.52;7.00;;;30.30;63.70;;;;;;6993540;28;20424;-77
2022/07/25 11:05:47;;;;;;;10.07;7.05;;;30.30;63.70;;;;;;6991841;28;20432;-76
2022/07/25 11:09:18;;;;;;;7.27;6.43;;;30.40;64.10;;;;;;6992919;28;20454;-77
2022/07/25 11:12:40;;;;;;;7.55;6.75;;;30.50;63.60;;;;;;6988786;28;20437;-79
2022/07/25 11:16:05;;;;;;;7.60;6.80;;;30.60;62.80;;;;;;6966224;28;20456;-78
2022/07/25 11:19:29;;;;;;;8.27;6.43;;;30.60;61.80;;;;;;6964150;28;20425;-77
2022/07/25 11:22:53;;;;;;;7.57;5.85;;;30.60;62.70;;;;;;6965361;28;20432;-77
2022/07/25 11:26:15;;;;;;;7.07;6.20;;;30.80;60.20;;;;;;6965912;28;20468;-78
2022/07/25 11:29:38;;;;;;;8.15;6.20;;;31.00;61.40;;;;;;6981800;28;20451;-77
2022/07/25 11:33:02;;;;;;;6.75;5.43;;;31.10;60.70;;;;;;6974875;28;20438;-77
2022/07/25 11:36:24;;;;;;;6.55;5.60;;;31.30;59.10;;;;;;6938652;28;20963;-77
2022/07/25 11:39:48;;;;;;;6.72;5.40;;;31.40;58.80;;;;;;6965391;28;20464;-77
2022/07/25 11:43:19;;;;;;;7.10;4.82;;;31.50;57.70;;;;;;6965850;28;20433;-77
2022/07/25 11:46:43;;;;;;;6.13;4.60;;;31.60;56.20;;;;;;6964273;28;20464;-78
2022/07/25 11:50:13;;;;;;;7.30;4.43;;;31.80;55.30;;;;;;6937797;28;20485;-77
2022/07/25 11:53:43;;;;;;;5.95;4.40;;;31.90;55.00;;;;;;6937810;28;20434;-77
2022/07/25 11:57:05;;;;;;;4.90;4.05;;;32.10;54.00;;;;;;6938581;28;20485;-79
2022/07/25 12:00:29;;;;;;;6.20;3.85;;;32.10;52.60;;;;;;6937320;28;20462;-76
2022/07/25 12:03:51;;;;;;;6.93;4.10;;;32.20;52.20;;;;;;6957652;28;20472;-77
2022/07/25 12:07:15;;;;;;;5.18;3.92;;;32.30;51.40;;;;;;6965084;28;20524;-77
2022/07/25 12:10:38;;;;;;;5.00;3.90;;;32.50;51.00;;;;;;6965009;28;20552;-76
2022/07/25 12:14:04;;;;;;;5.60;3.77;;;32.60;50.50;;;;;;6963084;28;20473;-77
2022/07/25 12:17:26;;;;;;;5.28;3.72;;;32.80;51.40;;;;;;6962712;28;20433;-78
2022/07/25 12:20:48;;;;;;;4.72;3.88;;;32.80;50.30;;;;;;6964571;28;20878;-78
2022/07/25 12:24:11;;;;;;;4.90;3.60;;;32.90;50.80;;;;;;6964381;28;20465;-76
2022/07/25 12:27:33;;;;;;;4.93;3.50;;;32.90;49.70;;;;;;6962643;28;20475;-77
2022/07/25 12:30:56;;;;;;;4.93;3.80;;;33.00;48.70;;;;;;6964000;28;20468;-78
2022/07/25 12:34:18;;;;;;;5.28;3.30;;;33.10;48.10;;;;;;6963988;28;20464;-77
2022/07/25 12:37:41;;;;;;;6.13;3.10;;;33.20;47.40;;;;;;6964483;28;20468;-77
2022/07/25 12:41:05;;;;;;;5.35;3.53;;;33.30;46.50;;;;;;6965742;28;20823;-78
2022/07/25 12:44:27;;;;;;;5.75;3.40;;;33.30;47.10;;;;;;6964118;28;20925;-76
2022/07/25 12:47:49;;;;;;;4.70;3.28;;;33.40;46.00;;;;;;6963964;28;20472;-77
2022/07/25 12:51:11;;;;;;;5.72;3.40;;;33.40;45.90;;;;;;6963943;28;20914;-77
2022/07/25 12:54:33;;;;;;;5.78;3.50;;;33.30;46.10;;;;;;6990569;28;20427;-76
2022/07/25 12:57:56;;;;;;;5.45;3.10;;;33.60;45.80;;;;;;6991026;28;20477;-78
2022/07/25 13:01:19;;;;;;;6.30;3.65;;;34.00;45.90;;;;;;6992287;28;21242;-80
2022/07/25 13:04:41;;;;;;;6.30;3.80;;;34.40;46.20;;;;;;6992843;28;20611;-80
2022/07/25 13:08:05;;;;;;;5.67;3.93;;;34.60;45.80;;;;;;6980679;28;20915;-79
2022/07/25 13:11:27;;;;;;;5.88;3.90;;;34.60;45.80;;;;;;6969100;28;20476;-79
2022/07/25 13:14:51;;;;;;;6.68;4.22;;;34.80;46.40;;;;;;6969839;28;20425;-82
2022/07/25 13:18:13;;;;;;;6.10;4.20;;;35.00;46.50;;;;;;6968737;28;20437;-80
2022/07/25 13:21:35;;;;;;;5.82;4.30;;;35.00;46.70;;;;;;6968918;28;21191;-82
2022/07/25 13:24:57;;;;;;;4.60;3.90;;;34.90;46.60;;;;;;6969408;28;20429;-80
2022/07/25 13:28:19;;;;;;;5.32;4.10;;;34.80;44.40;;;;;;6968327;28;20547;-79
2022/07/25 13:31:43;;;;;;;6.68;4.32;;;34.70;46.00;;;;;;6969159;28;20445;-79
2022/07/25 13:35:07;;;;;;;6.45;4.22;;;34.60;46.50;;;;;;6970240;28;20437;-80
2022/07/25 13:38:29;;;;;;;6.13;4.18;;;34.60;45.90;;;;;;6971694;28;20433;-79
2022/07/25 13:41:51;;;;;;;6.60;4.50;;;34.80;46.20;;;;;;6969821;28;20429;-79
2022/07/25 13:45:13;;;;;;;5.90;4.13;;;34.70;45.50;;;;;;6969092;28;20535;-78
2022/07/25 13:48:37;;;;;;;5.90;4.28;;;34.60;46.10;;;;;;6969880;28;20437;-77
2022/07/25 13:51:59;;;;;;;5.65;4.53;;;34.50;45.30;;;;;;6975023;28;20467;-80
2022/07/25 13:55:21;;;;;;;6.93;4.60;;;34.50;46.30;;;;;;6993194;28;20463;-80
2022/07/25 13:58:43;;;;;;;6.40;4.90;;;34.20;44.60;;;;;;6973926;28;20437;-80
2022/07/25 14:02:05;;;;;;;6.53;5.22;;;34.10;45.50;;;;;;6968117;28;20563;-82
2022/07/25 14:05:29;;;;;;;7.30;5.47;;;34.10;46.60;;;;;;6972398;28;20435;-82
2022/07/25 14:08:51;;;;;;;7.53;5.53;;;33.90;47.20;;;;;;6965789;28;20445;-80
2022/07/25 14:12:13;;;;;;;7.27;5.70;;;33.90;47.90;;;;;;6966538;28;20902;-81
2022/07/25 14:15:36;;;;;;;8.75;5.88;;;33.90;48.00;;;;;;6973663;28;20436;-83
2022/07/25 14:18:58;;;;;;;7.65;5.82;;;33.70;48.80;;;;;;6994722;28;20440;-82
2022/07/25 14:22:22;;;;;;;8.80;5.78;;;33.70;49.90;;;;;;7000043;28;20519;-82
2022/07/25 14:25:44;;;;;;;8.13;5.82;;;33.70;50.10;;;;;;6997365;28;20443;-83
2022/07/25 14:29:09;;;;;;;7.28;5.78;;;33.50;50.10;;;;;;6973710;28;20475;-82
2022/07/25 14:32:31;;;;;;;7.18;5.65;;;33.50;49.90;;;;;;6985000;28;20471;-82
2022/07/25 14:35:54;;;;;;;6.93;5.30;;;33.70;49.60;;;;;;6972686;28;20437;-81
2022/07/25 14:39:17;;;;;;;7.30;5.67;;;33.60;50.50;;;;;;6967045;28;20441;-80
2022/07/25 14:42:40;;;;;;;7.25;5.63;;;33.60;49.70;;;;;;6983614;28;20439;-81
2022/07/25 14:46:02;;;;;;;7.20;5.82;;;33.50;49.50;;;;;;6968195;28;20482;-83
2022/07/25 14:49:27;;;;;;;6.95;5.75;;;33.60;51.00;;;;;;6963870;28;20433;-81
2022/07/25 14:52:49;;;;;;;7.72;5.72;;;33.80;51.40;;;;;;6965663;28;20525;-80
2022/07/25 14:56:13;;;;;;;6.60;5.70;;;33.80;50.90;;;;;;6982318;28;21078;-81
2022/07/25 14:59:35;;;;;;;7.43;5.73;;;33.90;51.40;;;;;;6986930;28;20490;-81
2022/07/25 15:02:57;;;;;;;6.60;5.57;;;33.70;50.10;;;;;;6993343;28;20427;-80
2022/07/25 15:06:19;;;;;;;7.20;5.87;;;33.60;51.50;;;;;;6971078;28;21028;-81
2022/07/25 15:09:43;;;;;;;8.05;6.03;;;33.80;52.30;;;;;;6968060;28;20500;-81
2022/07/25 15:13:06;;;;;;;7.97;5.87;;;34.10;53.10;;;;;;6972610;28;20438;-80
2022/07/25 15:16:29;;;;;;;7.80;6.18;;;33.80;53.30;;;;;;6992823;28;20423;-80
2022/07/25 15:19:51;;;;;;;8.93;6.57;;;34.30;51.80;;;;;;6969547;28;20433;-82
2022/07/25 15:23:13;;;;;;;8.13;6.38;;;34.20;51.10;;;;;;6983919;28;20450;-79
2022/07/25 15:26:37;;;;;;;8.38;6.40;;;34.30;52.30;;;;;;6992483;28;20486;-79
2022/07/25 15:30:00;;;;;;;7.40;6.60;;;34.50;51.70;;;;;;6970610;28;20787;-79
2022/07/25 15:33:22;;;;;;;8.38;6.30;;;34.70;52.60;;;;;;6972091;28;20458;-80
2022/07/25 15:36:44;;;;;;;8.23;6.18;;;35.10;52.10;;;;;;6980518;28;20428;-82
2022/07/25 15:40:08;;;;;;;7.60;6.47;;;35.10;50.70;;;;;;6965223;28;20847;-82
2022/07/25 15:43:32;;;;;;;8.77;6.53;;;34.90;52.00;;;;;;6984509;28;20467;-80
2022/07/25 15:46:55;;;;;;;8.65;6.40;;;34.50;50.70;;;;;;6992471;28;20431;-80
2022/07/25 15:50:17;;;;;;;7.35;6.32;;;34.40;51.30;;;;;;6970460;28;20487;-81
2022/07/25 15:53:39;;;;;;;8.32;6.50;;;34.30;51.80;;;;;;6964845;28;20495;-80
2022/07/25 15:57:02;;;;;;;7.68;6.53;;;34.20;51.50;;;;;;6988602;28;20984;-81
2022/07/25 16:00:24;;;;;;;8.73;6.72;;;33.90;52.30;;;;;;6974533;28;20433;-83
2022/07/25 16:03:47;;;;;;;7.93;6.60;;;33.70;53.20;;;;;;6986550;28;20476;-79
2022/07/25 16:07:09;;;;;;;8.00;6.63;;;33.60;53.10;;;;;;6985800;28;20959;-79
2022/07/25 16:10:33;;;;;;;8.25;6.63;;;33.60;53.90;;;;;;6991716;28;20968;-79
2022/07/25 16:13:55;;;;;;;8.90;6.90;;;33.50;54.20;;;;;;6970192;28;20460;-82
2022/07/25 16:17:17;;;;;;;8.97;6.90;;;33.40;54.50;;;;;;6961953;28;20515;-81
2022/07/25 16:20:41;;;;;;;8.02;6.50;;;33.40;55.20;;;;;;6976739;28;20463;-81
2022/07/25 16:24:03;;;;;;;9.45;6.55;;;33.50;55.50;;;;;;6976773;28;21186;-80
2022/07/25 16:27:31;;;;;;;8.95;6.20;;;34.20;53.90;;;;;;6963990;28;20941;-83
2022/07/25 16:30:56;;;;;;;7.55;6.30;;;34.20;53.40;;;;;;6962761;28;20979;-81
2022/07/25 16:34:18;;;;;;;9.65;6.45;;;33.70;53.60;;;;;;6965236;28;20460;-80
2022/07/25 16:37:42;;;;;;;8.40;6.32;;;33.20;54.50;;;;;;6993777;28;20451;-83
2022/07/25 16:41:05;;;;;;;8.27;6.10;;;32.90;54.30;;;;;;7003117;28;20427;-81
2022/07/25 16:44:27;;;;;;;9.55;6.20;;;33.20;54.10;;;;;;6993757;28;20858;-82
2022/07/25 16:47:49;;;;;;;8.43;6.32;;;33.30;53.90;;;;;;6969105;28;20433;-81
2022/07/25 16:51:12;;;;;;;7.47;6.20;;;33.50;54.10;;;;;;6969571;28;20551;-80
2022/07/25 16:54:35;;;;;;;11.40;6.20;;;33.50;54.20;;;;;;6973607;28;20480;-80
2022/07/25 16:57:58;;;;;;;8.85;5.93;;;33.00;54.20;;;;;;6976701;28;20445;-81
2022/07/25 17:01:20;;;;;;;10.33;6.60;;;32.60;54.60;;;;;;6970671;28;20463;-83
2022/07/25 17:04:42;;;;;;;8.53;5.90;;;32.30;55.40;;;;;;6973497;28;20478;-83
2022/07/25 17:08:05;;;;;;;7.67;6.30;;;31.90;55.30;;;;;;6970795;28;20445;-80
2022/07/25 17:11:28;;;;;;;9.13;6.30;;;31.80;55.90;;;;;;6959145;28;22366;-81
2022/07/25 17:14:51;;;;;;;9.10;6.53;;;31.80;56.20;;;;;;6978108;28;20438;-80
2022/07/25 17:18:13;;;;;;;8.93;6.40;;;31.80;56.20;;;;;;6988425;28;20465;-81
2022/07/25 17:21:36;;;;;;;8.00;6.38;;;31.90;56.10;;;;;;6970065;28;20833;-82
2022/07/25 17:24:58;;;;;;;9.80;6.40;;;31.70;56.30;;;;;;6985987;28;20473;-80